Hoover, South Dakota
Current Conditions -  °F | °C
As of 7:15 PM on Friday 24 Oct 2014 (Local Time) from KSPF Reporting Station
Broken Clouds Broken Clouds  
Wind Chill: 46°   Ceiling: 11000
Heat Index: 48°   Visibility: 10mi
Dew Point: 36°   Wind: 6mph
Humidity: 62%   Direction: 130°SE
Pressure: 30.13"   Gusts: NA
Location:  44.9094°N, 103.193°W
Report Text: KSPF 250115Z AUTO 13005KT 10SM BKN110 09/02 A3013 RMK AO2
Loading
Personal Weather Stations






























Interactive Weather Map
Tropical Storm Tracking
New forecast layout! Learn more

10-Day Weather Forecast

Advertisements
Track Severe Weather on mobile